Saint Louis, Missouri
Traffic Map
Current Weather Conditions
Saint Louis, Missouri
Clear
Clear

Feels Like: 7°
Wind Chill: Ceiling: Unl
Heat Index: Visibility: 10mi
Dew Point: Wind: 0mph
Humidity: 93% Direction: ° ()
Pressure: 30.08in Gusts: 0mph
Raw Report DataKCPS 211153Z 00000KT 10SM CLR 07/06 A3008 RMK AO2 SLP186 T00720061 10106 20061 51016
Traffic Incident Summary
Active as of:
Severity:
Category:
InformationThere was an issue retrieving the traffic information for this location. Please try a different location or try again shortly.
Advertisements
Track Severe Weather on mobile